createdAt,value
2019-01-16T00:01:05.225Z,91.80
2019-01-16T00:03:59.538Z,91.90
2019-01-16T00:07:02.494Z,91.90
2019-01-16T00:09:52.200Z,92.00
2019-01-16T00:12:33.600Z,92.00
2019-01-16T00:15:26.180Z,91.80
2019-01-16T00:18:23.430Z,91.70
2019-01-16T00:21:13.129Z,91.80
2019-01-16T00:24:02.968Z,91.90
2019-01-16T00:26:52.537Z,92.00
2019-01-16T00:29:46.311Z,91.80
2019-01-16T00:32:29.327Z,91.90
2019-01-16T00:35:19.020Z,91.80
2019-01-16T00:38:08.688Z,91.80
2019-01-16T00:40:59.990Z,91.80
2019-01-16T00:43:49.510Z,91.90
2019-01-16T00:46:52.568Z,91.90
2019-01-16T00:49:41.937Z,91.90
2019-01-16T00:52:42.195Z,91.80
2019-01-16T00:55:33.396Z,91.80
2019-01-16T00:58:23.156Z,91.80
2019-01-16T01:01:05.417Z,91.90
2019-01-16T01:04:00.480Z,91.80
2019-01-16T01:06:52.159Z,91.70
2019-01-16T01:09:42.036Z,91.80
2019-01-16T01:12:45.298Z,91.70
2019-01-16T01:15:35.313Z,91.80
2019-01-16T01:18:32.227Z,91.50
2019-01-16T01:21:37.982Z,91.70
2019-01-16T01:24:30.584Z,91.50
2019-01-16T01:27:21.683Z,91.40
2019-01-16T01:30:01.268Z,91.30
2019-01-16T01:32:50.901Z,91.40
2019-01-16T01:35:51.198Z,91.50
2019-01-16T01:38:34.868Z,91.60
2019-01-16T01:41:20.318Z,91.70
2019-01-16T01:44:14.095Z,91.60
2019-01-16T01:47:23.155Z,91.80
2019-01-16T01:50:17.026Z,91.80
2019-01-16T01:53:06.870Z,91.70
2019-01-16T01:56:03.943Z,91.50
2019-01-16T01:58:53.798Z,91.50
2019-01-16T02:01:43.481Z,91.70
2019-01-16T02:04:40.764Z,91.70
2019-01-16T02:07:34.901Z,91.80
2019-01-16T02:10:28.425Z,91.70
2019-01-16T02:13:31.647Z,91.90
2019-01-16T02:16:21.028Z,91.80
2019-01-16T02:19:30.357Z,91.90
2019-01-16T02:22:33.246Z,91.90
2019-01-16T02:25:31.686Z,92.00
2019-01-16T02:28:25.796Z,92.00
2019-01-16T02:31:21.580Z,92.20
2019-01-16T02:34:17.968Z,92.10
2019-01-16T02:37:12.015Z,92.00
2019-01-16T02:40:01.714Z,92.10
2019-01-16T02:42:52.765Z,92.20
2019-01-16T02:45:42.732Z,92.20
2019-01-16T02:48:55.873Z,92.10
2019-01-16T02:51:41.834Z,92.30
2019-01-16T02:54:31.581Z,92.20
2019-01-16T02:57:22.626Z,92.20
2019-01-16T03:00:13.931Z,92.10
2019-01-16T03:03:04.299Z,92.10
2019-01-16T03:06:00.751Z,92.10
2019-01-16T03:08:42.764Z,91.90
2019-01-16T03:11:42.500Z,92.00
2019-01-16T03:14:33.501Z,92.10
2019-01-16T03:17:23.708Z,91.90
2019-01-16T03:20:21.826Z,91.90
2019-01-16T03:23:24.722Z,92.00
2019-01-16T03:26:05.245Z,91.70
2019-01-16T03:29:02.335Z,91.80
2019-01-16T03:32:02.133Z,91.80
2019-01-16T03:34:46.003Z,91.90
2019-01-16T03:37:39.816Z,92.00
2019-01-16T03:40:31.684Z,91.90
2019-01-16T03:43:13.996Z,91.80
2019-01-16T03:46:12.488Z,91.60
2019-01-16T03:49:03.594Z,91.60
2019-01-16T03:51:57.693Z,91.50
2019-01-16T03:54:51.712Z,91.50
2019-01-16T03:57:54.943Z,91.40
2019-01-16T04:01:04.103Z,91.40
2019-01-16T04:04:04.013Z,91.50
2019-01-16T04:07:04.285Z,91.50
2019-01-16T04:09:58.252Z,91.50
2019-01-16T04:12:42.591Z,91.50
2019-01-16T04:15:49.029Z,91.50
2019-01-16T04:18:46.133Z,91.40
2019-01-16T04:21:36.253Z,91.30
2019-01-16T04:24:27.355Z,91.20
2019-01-16T04:27:11.927Z,91.10
2019-01-16T04:30:05.795Z,91.00
2019-01-16T04:33:01.350Z,90.80
2019-01-16T04:36:00.691Z,90.50
2019-01-16T04:38:54.861Z,90.70
2019-01-16T04:41:49.571Z,90.70
2019-01-16T04:44:46.585Z,90.70
2019-01-16T04:47:46.797Z,90.50
2019-01-16T04:50:29.232Z,90.50
2019-01-16T04:53:20.240Z,90.50
2019-01-16T04:56:17.543Z,90.50
2019-01-16T04:59:02.316Z,90.60
2019-01-16T05:02:05.641Z,90.60
2019-01-16T05:05:05.804Z,90.60
2019-01-16T05:07:56.757Z,90.70
2019-01-16T05:10:57.005Z,90.70
2019-01-16T05:13:48.066Z,90.40
2019-01-16T05:16:41.815Z,90.40
2019-01-16T05:19:38.548Z,90.40
2019-01-16T05:22:27.364Z,90.40
2019-01-16T05:25:14.142Z,90.40
2019-01-16T05:28:05.196Z,90.50
2019-01-16T05:31:01.901Z,90.20
2019-01-16T05:34:05.137Z,90.20
2019-01-16T05:36:54.435Z,90.20
2019-01-16T05:40:03.466Z,90.20
2019-01-16T05:42:50.898Z,90.30
2019-01-16T05:45:38.630Z,90.30
2019-01-16T05:48:35.464Z,90.30
2019-01-16T05:51:37.547Z,90.30
2019-01-16T05:54:27.270Z,90.20
2019-01-16T05:57:16.731Z,90.20
2019-01-16T06:00:00.235Z,90.20
2019-01-16T06:02:59.323Z,90.10
2019-01-16T06:06:02.395Z,90.20
2019-01-16T06:08:52.061Z,90.20
2019-01-16T06:11:52.264Z,90.30
2019-01-16T06:14:39.893Z,90.10
2019-01-16T06:17:25.838Z,90.10
2019-01-16T06:20:31.903Z,90.10
2019-01-16T06:23:21.365Z,90.10
2019-01-16T06:26:24.537Z,89.60
2019-01-16T06:29:30.745Z,89.50
2019-01-16T06:32:20.620Z,89.30
2019-01-16T06:35:23.752Z,89.10
2019-01-16T06:38:15.149Z,87.80
2019-01-16T06:41:06.304Z,87.80
2019-01-16T06:44:06.421Z,87.90
2019-01-16T06:46:57.620Z,87.80
2019-01-16T06:49:48.113Z,88.00
2019-01-16T06:52:39.109Z,87.80
2019-01-16T06:55:30.261Z,87.90
2019-01-16T06:58:24.222Z,87.60
2019-01-16T07:01:21.843Z,87.90
2019-01-16T07:04:11.297Z,88.10
2019-01-16T07:06:55.596Z,87.90
2019-01-16T07:09:55.857Z,87.30
2019-01-16T07:12:52.576Z,87.20
2019-01-16T07:15:42.960Z,88.40
2019-01-16T07:18:42.908Z,87.00
2019-01-16T07:21:39.826Z,87.10
2019-01-16T07:24:40.104Z,87.10
2019-01-16T07:27:31.208Z,86.70
2019-01-16T07:30:31.430Z,86.40
2019-01-16T07:33:20.952Z,86.90
2019-01-16T07:36:14.663Z,86.90
2019-01-16T07:39:08.427Z,87.00
2019-01-16T07:41:59.373Z,86.20
2019-01-16T07:44:59.527Z,86.10
2019-01-16T07:47:50.109Z,85.90
2019-01-16T07:50:50.076Z,85.50
2019-01-16T07:53:49.903Z,85.70
2019-01-16T07:56:40.906Z,85.40
2019-01-16T07:59:30.628Z,85.50
2019-01-16T08:02:20.417Z,85.50
2019-01-16T08:05:14.473Z,84.80
2019-01-16T08:08:11.409Z,84.80
2019-01-16T08:11:14.580Z,84.80
2019-01-16T08:14:04.520Z,84.20
2019-01-16T08:16:49.319Z,84.80
2019-01-16T08:19:38.821Z,84.40
2019-01-16T08:22:21.659Z,84.60
2019-01-16T08:25:15.412Z,84.20
2019-01-16T08:28:10.696Z,84.10
2019-01-16T08:31:16.966Z,83.90
2019-01-16T08:34:01.395Z,83.70
2019-01-16T08:36:51.108Z,83.60
2019-01-16T08:39:54.234Z,83.70
2019-01-16T08:42:43.935Z,83.20
2019-01-16T08:45:44.360Z,82.80
2019-01-16T08:48:36.187Z,82.80
2019-01-16T08:51:36.216Z,82.60
2019-01-16T08:54:25.688Z,82.50
2019-01-16T08:57:19.918Z,81.80
2019-01-16T09:00:09.891Z,82.20
2019-01-16T09:02:59.506Z,81.80
2019-01-16T09:05:59.849Z,81.40
2019-01-16T09:09:02.674Z,80.70
2019-01-16T09:12:02.881Z,80.30
2019-01-16T09:14:59.800Z,80.30
2019-01-16T09:17:48.278Z,79.20
2019-01-16T09:20:40.090Z,78.20
2019-01-16T09:23:28.973Z,77.90
2019-01-16T09:26:25.933Z,77.60
2019-01-16T09:29:15.548Z,77.80
2019-01-16T09:32:09.779Z,78.50
2019-01-16T09:34:59.965Z,78.00
2019-01-16T09:37:49.650Z,78.00
2019-01-16T09:40:46.393Z,76.70
2019-01-16T09:43:52.410Z,76.50
2019-01-16T09:46:43.892Z,77.30
2019-01-16T09:49:43.810Z,76.30
2019-01-16T09:52:32.911Z,77.10
2019-01-16T09:55:26.452Z,76.40
2019-01-16T09:58:16.136Z,77.10
2019-01-16T10:01:13.580Z,76.70
2019-01-16T10:04:03.173Z,75.30
2019-01-16T10:07:06.240Z,75.50
2019-01-16T10:09:49.290Z,74.70
2019-01-16T10:12:58.518Z,74.50
2019-01-16T10:16:07.659Z,74.80
2019-01-16T10:18:56.155Z,74.50
2019-01-16T10:21:44.843Z,74.70
2019-01-16T10:24:41.732Z,73.70
2019-01-16T10:27:34.743Z,73.90
2019-01-16T10:30:28.340Z,72.70
2019-01-16T10:33:28.565Z,72.30
2019-01-16T10:36:18.360Z,72.50
2019-01-16T10:39:09.456Z,71.30
2019-01-16T10:42:12.326Z,70.50
2019-01-16T10:45:15.493Z,70.10
2019-01-16T10:48:15.636Z,69.20
2019-01-16T10:51:05.557Z,67.50
2019-01-16T10:53:59.683Z,67.20
2019-01-16T10:56:57.025Z,66.40
2019-01-16T10:59:48.080Z,66.10
2019-01-16T11:02:51.147Z,66.60
2019-01-16T11:05:41.201Z,66.70
2019-01-16T11:08:44.596Z,67.00
2019-01-16T11:11:41.566Z,68.30
2019-01-16T11:14:38.404Z,68.50
2019-01-16T11:17:38.512Z,68.50
2019-01-16T11:20:37.180Z,68.70
2019-01-16T11:23:34.167Z,69.60
2019-01-16T11:26:24.063Z,70.20
2019-01-16T11:29:18.164Z,71.30
2019-01-16T11:32:12.032Z,72.20
2019-01-16T11:35:01.561Z,72.60
2019-01-16T11:38:10.836Z,72.90
2019-01-16T11:41:00.427Z,71.50
2019-01-16T11:43:57.862Z,71.70
2019-01-16T11:46:50.749Z,70.90
2019-01-16T11:49:40.326Z,70.60
2019-01-16T11:52:40.604Z,69.70
2019-01-16T11:55:49.698Z,68.60
2019-01-16T11:58:30.364Z,70.50
2019-01-16T12:01:21.232Z,69.60
2019-01-16T12:04:12.328Z,68.30
2019-01-16T12:07:12.117Z,68.20
2019-01-16T12:10:01.867Z,69.00
2019-01-16T12:13:04.900Z,68.90
2019-01-16T12:15:50.116Z,68.10
2019-01-16T12:18:42.456Z,65.40
2019-01-16T12:21:32.128Z,61.10
2019-01-16T12:24:21.963Z,60.50
2019-01-16T12:27:11.853Z,61.10
2019-01-16T12:29:54.890Z,61.50
2019-01-16T12:33:01.029Z,60.60
2019-01-16T12:35:54.838Z,59.70
2019-01-16T12:38:45.993Z,59.90
2019-01-16T12:41:35.377Z,59.70
2019-01-16T12:44:29.513Z,57.20
2019-01-16T12:47:16.018Z,52.50
2019-01-16T12:50:06.022Z,51.00
2019-01-16T12:52:55.667Z,47.00
2019-01-16T12:55:55.692Z,47.80
2019-01-16T12:58:44.111Z,49.60
2019-01-16T13:01:44.341Z,50.50
2019-01-16T13:04:34.272Z,52.10
2019-01-16T13:07:25.656Z,54.00
2019-01-16T13:10:15.052Z,53.40
2019-01-16T13:13:17.534Z,52.80
2019-01-16T13:16:00.729Z,52.00
2019-01-16T13:19:04.085Z,51.90
2019-01-16T13:21:45.115Z,52.00
2019-01-16T13:24:40.414Z,51.60
2019-01-16T13:27:29.998Z,50.90
2019-01-16T13:30:11.840Z,51.10
2019-01-16T13:33:01.211Z,50.70
2019-01-16T13:35:50.952Z,51.10
2019-01-16T13:38:42.090Z,51.40
2019-01-16T13:41:42.120Z,51.70
2019-01-16T13:44:31.988Z,52.20
2019-01-16T13:47:25.393Z,52.00
2019-01-16T13:50:17.237Z,53.10
2019-01-16T13:53:06.869Z,53.70
2019-01-16T13:55:56.655Z,53.80
2019-01-16T13:58:56.908Z,53.40
2019-01-16T14:01:59.743Z,53.70
2019-01-16T14:04:50.832Z,53.70
2019-01-16T14:07:31.992Z,56.10
2019-01-16T14:10:15.874Z,56.80
2019-01-16T14:13:09.693Z,57.70
2019-01-16T14:16:12.908Z,59.20
2019-01-16T14:19:06.968Z,60.70
2019-01-16T14:22:10.361Z,61.10
2019-01-16T14:24:51.762Z,62.50
2019-01-16T14:27:42.881Z,65.10
2019-01-16T14:30:42.640Z,66.10
2019-01-16T14:33:45.539Z,67.00
2019-01-16T14:36:39.877Z,67.70
2019-01-16T14:39:29.648Z,68.40
2019-01-16T14:42:14.915Z,68.90
2019-01-16T14:45:09.118Z,69.70
2019-01-16T14:48:06.409Z,69.70
2019-01-16T14:50:57.813Z,70.60
2019-01-16T14:53:47.800Z,71.40
2019-01-16T14:56:32.972Z,71.30
2019-01-16T14:59:24.130Z,71.60
2019-01-16T15:02:24.327Z,71.90
2019-01-16T15:05:07.797Z,72.20
2019-01-16T15:07:54.992Z,72.90
2019-01-16T15:10:46.142Z,73.50
2019-01-16T15:13:39.922Z,73.60
2019-01-16T15:16:20.751Z,73.80
2019-01-16T15:19:10.317Z,74.30
2019-01-16T15:22:06.412Z,74.40
2019-01-16T15:24:54.527Z,74.80
2019-01-16T15:27:45.168Z,75.10
2019-01-16T15:30:39.794Z,75.20
2019-01-16T15:33:40.081Z,75.60
2019-01-16T15:36:46.187Z,75.90
2019-01-16T15:39:40.086Z,76.20
2019-01-16T15:42:46.575Z,76.40
2019-01-16T15:45:37.733Z,76.90
2019-01-16T15:48:28.827Z,77.30
2019-01-16T15:51:26.236Z,77.50
2019-01-16T15:54:23.888Z,77.60
2019-01-16T15:57:12.278Z,77.90
2019-01-16T16:00:03.224Z,78.20
2019-01-16T16:02:54.436Z,78.20
2019-01-16T16:05:40.790Z,78.50
2019-01-16T16:08:50.160Z,78.60
2019-01-16T16:11:39.917Z,78.60
2019-01-16T16:14:49.347Z,79.00
2019-01-16T16:17:43.410Z,79.00
2019-01-16T16:20:40.744Z,79.00
2019-01-16T16:23:47.105Z,79.30
2019-01-16T16:26:47.331Z,79.30
2019-01-16T16:29:36.952Z,79.50
2019-01-16T16:32:31.008Z,80.00
2019-01-16T16:35:28.136Z,80.50
2019-01-16T16:38:37.449Z,80.80
2019-01-16T16:41:37.038Z,80.80
2019-01-16T16:44:26.989Z,81.10
2019-01-16T16:47:16.246Z,81.50
2019-01-16T16:50:13.296Z,82.00
2019-01-16T16:53:01.529Z,82.30
2019-01-16T16:55:51.048Z,82.60
2019-01-16T16:58:42.143Z,82.40
2019-01-16T17:01:28.529Z,82.10
2019-01-16T17:04:22.650Z,82.10
2019-01-16T17:07:13.953Z,81.90
2019-01-16T17:09:53.202Z,81.90
2019-01-16T17:12:42.654Z,81.60
2019-01-16T17:15:33.881Z,81.90
2019-01-16T17:18:24.032Z,81.80
2019-01-16T17:21:18.104Z,81.80
2019-01-16T17:24:06.566Z,81.80
2019-01-16T17:27:09.838Z,82.00
2019-01-16T17:29:55.690Z,82.20
2019-01-16T17:33:01.714Z,82.40
2019-01-16T17:35:58.775Z,82.60
2019-01-16T17:38:46.233Z,82.40
2019-01-16T17:41:46.453Z,82.40
2019-01-16T17:44:46.617Z,82.30
2019-01-16T17:47:42.204Z,82.60
2019-01-16T17:50:45.791Z,82.80
2019-01-16T17:53:49.034Z,82.90
2019-01-16T17:56:38.858Z,83.00
2019-01-16T17:59:36.310Z,83.20
2019-01-16T18:02:26.051Z,83.40
2019-01-16T18:05:17.044Z,83.50
2019-01-16T18:08:08.156Z,83.50
2019-01-16T18:10:58.000Z,83.40
2019-01-16T18:13:52.354Z,83.40
2019-01-16T18:16:52.687Z,83.20
2019-01-16T18:19:51.372Z,83.00
2019-01-16T18:22:49.192Z,83.00
2019-01-16T18:25:43.155Z,83.30
2019-01-16T18:28:40.368Z,83.50
2019-01-16T18:31:33.525Z,83.70
2019-01-16T18:34:43.044Z,84.00
2019-01-16T18:37:30.461Z,84.00
2019-01-16T18:40:18.232Z,83.70
2019-01-16T18:43:22.218Z,83.40
2019-01-16T18:46:16.094Z,83.60
2019-01-16T18:49:03.592Z,83.50
2019-01-16T18:51:54.700Z,83.50
2019-01-16T18:54:35.192Z,83.60
2019-01-16T18:57:33.694Z,83.70
2019-01-16T19:00:31.836Z,84.00
2019-01-16T19:03:27.397Z,83.90
2019-01-16T19:06:16.883Z,84.00
2019-01-16T19:09:06.472Z,84.10
2019-01-16T19:11:56.352Z,84.20
2019-01-16T19:14:53.957Z,84.40
2019-01-16T19:17:43.782Z,84.50
2019-01-16T19:20:50.567Z,84.80
2019-01-16T19:23:35.536Z,84.70
2019-01-16T19:26:19.944Z,84.80
2019-01-16T19:29:29.305Z,84.70
2019-01-16T19:32:18.985Z,84.30
2019-01-16T19:35:21.904Z,83.80
2019-01-16T19:38:14.067Z,83.70
2019-01-16T19:41:12.654Z,83.80
2019-01-16T19:44:09.864Z,84.00
2019-01-16T19:46:54.770Z,83.90
2019-01-16T19:49:44.479Z,84.40
2019-01-16T19:52:35.780Z,84.40
2019-01-16T19:55:33.692Z,85.00
2019-01-16T19:58:26.879Z,85.10
2019-01-16T20:01:20.993Z,85.20
2019-01-16T20:04:14.260Z,85.10
2019-01-16T20:06:59.414Z,85.00
2019-01-16T20:09:47.783Z,85.60
2019-01-16T20:12:29.459Z,85.60
2019-01-16T20:15:26.911Z,85.10
2019-01-16T20:18:20.705Z,85.80
2019-01-16T20:21:11.645Z,86.10
2019-01-16T20:23:55.745Z,86.50
2019-01-16T20:26:43.074Z,86.40
2019-01-16T20:29:49.407Z,86.00
2019-01-16T20:32:49.696Z,86.60
2019-01-16T20:35:50.742Z,87.10
2019-01-16T20:38:44.926Z,87.80
2019-01-16T20:41:36.118Z,87.80
2019-01-16T20:44:27.304Z,87.10
2019-01-16T20:47:21.043Z,87.10
2019-01-16T20:50:21.101Z,87.30
2019-01-16T20:53:05.841Z,87.20
2019-01-16T20:55:57.117Z,87.60
2019-01-16T20:58:51.093Z,86.80
2019-01-16T21:01:46.999Z,86.90
2019-01-16T21:04:41.300Z,87.50
2019-01-16T21:07:21.416Z,86.60
2019-01-16T21:10:03.841Z,86.40
2019-01-16T21:13:00.816Z,86.80
2019-01-16T21:15:52.399Z,87.30
2019-01-16T21:18:46.489Z,87.30
2019-01-16T21:21:36.771Z,87.70
2019-01-16T21:24:33.798Z,87.40
2019-01-16T21:27:33.853Z,87.00
2019-01-16T21:30:36.951Z,86.80
2019-01-16T21:33:28.238Z,86.90
2019-01-16T21:36:25.495Z,86.90
2019-01-16T21:39:16.582Z,86.90
2019-01-16T21:42:07.720Z,87.40
2019-01-16T21:44:58.708Z,88.30
2019-01-16T21:47:48.523Z,87.30
2019-01-16T21:50:40.342Z,87.10
2019-01-16T21:53:30.494Z,86.70
2019-01-16T21:56:20.406Z,88.00
2019-01-16T21:59:05.565Z,88.40
2019-01-16T22:01:55.334Z,88.30
2019-01-16T22:04:55.463Z,88.20
2019-01-16T22:07:46.999Z,88.80
2019-01-16T22:10:36.478Z,89.20
2019-01-16T22:13:39.878Z,88.80
2019-01-16T22:16:31.532Z,89.20
2019-01-16T22:19:25.677Z,89.20
2019-01-16T22:22:09.215Z,89.50
2019-01-16T22:25:00.379Z,89.80
2019-01-16T22:27:45.540Z,89.00
2019-01-16T22:30:43.581Z,88.70
2019-01-16T22:33:46.575Z,89.10
2019-01-16T22:36:46.607Z,89.00
2019-01-16T22:39:37.767Z,88.60
2019-01-16T22:42:24.024Z,88.60
2019-01-16T22:45:23.779Z,88.40
2019-01-16T22:48:13.281Z,88.70
2019-01-16T22:51:03.086Z,89.70
2019-01-16T22:53:52.625Z,89.40
2019-01-16T22:56:49.875Z,89.30
2019-01-16T22:59:47.048Z,88.80
2019-01-16T23:02:53.509Z,89.60
2019-01-16T23:05:43.228Z,90.10
2019-01-16T23:08:32.973Z,90.10
2019-01-16T23:11:22.779Z,90.00
2019-01-16T23:14:03.672Z,89.60
2019-01-16T23:17:03.085Z,88.90
2019-01-16T23:19:48.620Z,89.70
2019-01-16T23:22:31.347Z,89.10
2019-01-16T23:25:20.793Z,89.30
2019-01-16T23:28:23.718Z,89.40
2019-01-16T23:31:25.746Z,89.40
2019-01-16T23:34:15.540Z,89.60
2019-01-16T23:37:09.449Z,90.00
2019-01-16T23:40:06.246Z,89.80
2019-01-16T23:42:57.498Z,89.50
2019-01-16T23:45:48.592Z,89.70
2019-01-16T23:48:39.805Z,90.10
2019-01-16T23:51:29.645Z,90.10
2019-01-16T23:54:19.362Z,90.10
2019-01-16T23:57:10.518Z,90.20
